Time;durP1;ratioP1;P1;durP2;ratioP2;P2;SDS_P1;SDS_P2;PMS_P1;PMS_P2;Temp;Humidity;BMP_temperature;BMP_pressure;BME280_temperature;BME280_humidity;BME280_pressure;Samples;Min_cycle;Max_cycle;Signal;HPM_P1;HPM_P2
2021/08/21 00:01:53;;;;;;;15.75;14.05;;;17.10;99.90;;;;;;5014446;28;20577;-83
2021/08/21 00:04:19;;;;;;;16.65;15.05;;;17.10;99.90;;;;;;5008804;28;20210;-81
2021/08/21 00:06:46;;;;;;;16.75;15.10;;;17.10;99.90;;;;;;5008831;28;20207;-79
2021/08/21 00:09:15;;;;;;;21.33;19.02;;;17.00;99.90;;;;;;5009766;28;20203;-79
2021/08/21 00:11:42;;;;;;;17.38;15.38;;;17.00;99.90;;;;;;5009482;28;20701;-81
2021/08/21 00:14:09;;;;;;;18.98;16.98;;;17.00;99.90;;;;;;5009552;28;20231;-82
2021/08/21 00:16:36;;;;;;;17.27;15.48;;;17.00;99.90;;;;;;5009728;28;20242;-80
2021/08/21 00:19:04;;;;;;;17.00;15.20;;;17.00;99.90;;;;;;5010532;28;20950;-82
2021/08/21 00:21:31;;;;;;;21.70;19.42;;;17.10;99.90;;;;;;5010826;28;20211;-83
2021/08/21 00:23:57;;;;;;;18.90;16.90;;;17.10;99.90;;;;;;5009369;28;20195;-83
2021/08/21 00:26:25;;;;;;;17.73;15.52;;;17.10;99.90;;;;;;5011544;28;20203;-80
2021/08/21 00:28:52;;;;;;;20.27;16.80;;;17.00;99.90;;;;;;5010297;28;20207;-82
2021/08/21 00:31:20;;;;;;;19.02;17.02;;;17.00;99.90;;;;;;5010448;28;20219;-82
2021/08/21 00:33:47;;;;;;;15.88;14.27;;;17.00;99.90;;;;;;5010253;28;20804;-84
2021/08/21 00:36:14;;;;;;;15.85;14.20;;;17.00;99.90;;;;;;5009985;28;20206;-84
2021/08/21 00:38:40;;;;;;;18.88;16.17;;;16.90;99.90;;;;;;5010847;28;20214;-82
2021/08/21 00:41:07;;;;;;;14.93;13.32;;;16.90;99.90;;;;;;5009928;28;20207;-81
2021/08/21 00:43:37;;;;;;;16.38;14.68;;;16.90;99.90;;;;;;5010921;28;20571;-82
2021/08/21 00:46:04;;;;;;;13.98;12.52;;;16.80;99.90;;;;;;5010610;28;20200;-82
2021/08/21 00:48:31;;;;;;;12.32;11.15;;;16.80;99.90;;;;;;5011042;28;20200;-82
2021/08/21 00:51:01;;;;;;;14.13;12.57;;;16.70;99.90;;;;;;5009396;28;20207;-80
2021/08/21 00:53:28;;;;;;;13.80;12.38;;;16.70;99.90;;;;;;5010339;28;20341;-82
2021/08/21 00:55:54;;;;;;;12.25;11.05;;;16.60;99.90;;;;;;5010049;28;20207;-81
2021/08/21 00:58:22;;;;;;;13.63;12.23;;;16.60;99.90;;;;;;5009660;28;20556;-82
2021/08/21 01:00:52;;;;;;;13.50;12.10;;;16.50;99.90;;;;;;5009108;28;20218;-80
2021/08/21 01:03:19;;;;;;;13.60;12.15;;;16.50;99.90;;;;;;5010226;28;20802;-83
2021/08/21 01:05:46;;;;;;;11.68;10.45;;;16.50;99.90;;;;;;5008332;28;20203;-82
2021/08/21 01:08:13;;;;;;;14.48;12.30;;;16.40;99.90;;;;;;5007790;28;20234;-82
2021/08/21 01:10:40;;;;;;;20.10;17.10;;;16.40;99.90;;;;;;5009514;28;20210;-81
2021/08/21 01:13:07;;;;;;;16.67;13.77;;;16.40;99.90;;;;;;5010506;28;20234;-81
2021/08/21 01:15:34;;;;;;;15.50;13.57;;;16.30;99.90;;;;;;5010199;28;20276;-83
2021/08/21 01:18:04;;;;;;;16.02;13.98;;;16.30;99.90;;;;;;5010289;28;20206;-82
2021/08/21 01:20:31;;;;;;;14.07;12.60;;;16.20;99.90;;;;;;5009657;28;20744;-82
2021/08/21 01:23:00;;;;;;;14.32;12.13;;;16.20;99.90;;;;;;5009737;28;20199;-81
2021/08/21 01:25:28;;;;;;;14.32;12.82;;;16.20;99.90;;;;;;5009155;28;20222;-83
2021/08/21 01:27:56;;;;;;;13.90;12.00;;;16.20;99.90;;;;;;5009399;28;20600;-81
2021/08/21 01:30:24;;;;;;;16.73;13.38;;;16.20;99.90;;;;;;5010131;28;20265;-82
2021/08/21 01:32:50;;;;;;;13.27;11.60;;;16.10;99.90;;;;;;5009071;28;20206;-80
2021/08/21 01:35:17;;;;;;;13.30;11.48;;;16.10;99.90;;;;;;5009858;28;20203;-82
2021/08/21 01:37:44;;;;;;;15.00;12.55;;;16.10;99.90;;;;;;5010010;28;20257;-81
2021/08/21 01:40:12;;;;;;;16.17;13.48;;;16.00;99.90;;;;;;5009966;28;20203;-81
2021/08/21 01:42:40;;;;;;;14.88;13.13;;;16.10;99.90;;;;;;5009622;28;20767;-84
2021/08/21 01:45:12;;;;;;;14.35;12.18;;;16.00;99.90;;;;;;5010487;28;20484;-84
2021/08/21 01:47:39;;;;;;;13.27;11.23;;;16.00;99.90;;;;;;5026334;28;20219;-84
2021/08/21 01:50:10;;;;;;;12.05;10.63;;;16.00;99.90;;;;;;5023711;28;20210;-84
2021/08/21 01:52:37;;;;;;;18.30;13.45;;;16.00;99.90;;;;;;5010238;28;20269;-83
2021/08/21 01:55:05;;;;;;;20.25;16.63;;;15.90;99.90;;;;;;5025156;28;20228;-83
2021/08/21 01:57:32;;;;;;;15.05;13.30;;;15.90;99.90;;;;;;5032147;28;20203;-82
2021/08/21 01:59:59;;;;;;;21.85;16.73;;;15.90;99.90;;;;;;5031660;28;20202;-84
2021/08/21 02:02:27;;;;;;;15.57;13.30;;;15.90;99.90;;;;;;5020519;28;20206;-83
2021/08/21 02:04:54;;;;;;;18.70;15.45;;;15.90;99.90;;;;;;5011106;28;20643;-81
2021/08/21 02:07:21;;;;;;;18.88;16.33;;;15.90;99.90;;;;;;5010757;28;20199;-80
2021/08/21 02:09:48;;;;;;;19.00;15.27;;;15.80;99.90;;;;;;5008963;28;20192;-85
2021/08/21 02:12:16;;;;;;;15.10;13.45;;;15.80;99.90;;;;;;5009242;28;20607;-81
2021/08/21 02:14:43;;;;;;;15.88;13.90;;;15.80;99.90;;;;;;5006557;28;20700;-83
2021/08/21 02:17:10;;;;;;;20.60;16.80;;;15.80;99.90;;;;;;5007812;28;20194;-84
2021/08/21 02:19:39;;;;;;;20.42;16.30;;;15.80;99.90;;;;;;5029630;28;20218;-84
2021/08/21 02:22:06;;;;;;;23.63;16.55;;;15.80;99.90;;;;;;5031851;28;20198;-85
2021/08/21 02:24:35;;;;;;;25.98;19.67;;;15.80;99.90;;;;;;5032521;28;20206;-85
2021/08/21 02:27:04;;;;;;;29.25;23.15;;;15.90;99.90;;;;;;5022937;28;20261;-83
2021/08/21 02:29:30;;;;;;;24.25;18.58;;;15.90;99.90;;;;;;5012924;28;20314;-82
2021/08/21 02:31:57;;;;;;;25.50;20.33;;;15.90;99.90;;;;;;5011121;28;20199;-83
2021/08/21 02:34:24;;;;;;;27.92;22.05;;;16.00;99.90;;;;;;5011339;28;20222;-83
2021/08/21 02:36:53;;;;;;;32.15;25.95;;;16.00;99.90;;;;;;5011660;28;20207;-83
2021/08/21 02:39:21;;;;;;;36.35;26.05;;;16.10;99.90;;;;;;5014149;28;20203;-83
2021/08/21 02:41:49;;;;;;;34.28;24.83;;;16.10;99.90;;;;;;5015373;28;20630;-82
2021/08/21 02:44:16;;;;;;;32.38;24.65;;;16.10;99.90;;;;;;5012467;28;20528;-81
2021/08/21 02:46:43;;;;;;;31.60;25.88;;;16.10;99.90;;;;;;5011801;28;20916;-83
2021/08/21 02:49:10;;;;;;;29.33;23.40;;;16.10;99.90;;;;;;5011345;28;20207;-82
2021/08/21 02:51:37;;;;;;;28.77;23.58;;;16.10;99.90;;;;;;5007711;28;20648;-82
2021/08/21 02:54:05;;;;;;;27.25;21.13;;;16.10;99.90;;;;;;5007630;28;20667;-82
2021/08/21 02:56:32;;;;;;;28.27;22.23;;;16.10;99.90;;;;;;5007392;28;20195;-81
2021/08/21 02:58:59;;;;;;;25.00;19.73;;;16.10;99.90;;;;;;5008793;28;20217;-81
2021/08/21 03:01:26;;;;;;;27.90;22.35;;;16.10;99.90;;;;;;5012071;28;20191;-82
2021/08/21 03:03:53;;;;;;;29.90;23.45;;;16.10;99.90;;;;;;5011239;28;20234;-81
2021/08/21 03:06:20;;;;;;;26.20;20.92;;;16.10;99.90;;;;;;5011989;28;20199;-82
2021/08/21 03:08:47;;;;;;;29.98;22.90;;;16.10;99.90;;;;;;5011565;28;20222;-82
2021/08/21 03:11:15;;;;;;;24.70;20.13;;;16.10;99.90;;;;;;5011477;28;20211;-80
2021/08/21 03:13:42;;;;;;;20.10;16.55;;;16.10;99.90;;;;;;5013069;28;20226;-83
2021/08/21 03:16:10;;;;;;;25.17;19.73;;;16.10;99.90;;;;;;5012105;28;20243;-81
2021/08/21 03:18:37;;;;;;;25.23;19.67;;;16.10;99.90;;;;;;5011500;28;20211;-83
2021/08/21 03:21:04;;;;;;;26.90;20.05;;;16.10;99.90;;;;;;5021264;28;20223;-81
2021/08/21 03:23:30;;;;;;;21.75;17.20;;;16.10;99.90;;;;;;5021340;28;20587;-81
2021/08/21 03:25:58;;;;;;;17.77;15.85;;;16.10;99.90;;;;;;5013464;28;20203;-82
2021/08/21 03:28:26;;;;;;;17.73;15.52;;;16.10;99.90;;;;;;5011077;28;20207;-81
2021/08/21 03:30:53;;;;;;;25.00;18.83;;;16.10;99.90;;;;;;5010925;28;20223;-83
2021/08/21 03:33:20;;;;;;;22.65;18.38;;;16.10;99.90;;;;;;5024811;28;20213;-81
2021/08/21 03:35:47;;;;;;;19.60;16.05;;;16.10;99.90;;;;;;5031247;28;20367;-82
2021/08/21 03:38:15;;;;;;;17.42;14.82;;;16.10;99.90;;;;;;5032220;28;20199;-83
2021/08/21 03:40:42;;;;;;;18.10;15.35;;;16.10;99.90;;;;;;5031499;28;20210;-83
2021/08/21 03:43:09;;;;;;;19.17;15.30;;;16.10;99.90;;;;;;5031788;28;20209;-83
2021/08/21 03:45:40;;;;;;;18.52;14.85;;;16.10;99.90;;;;;;5011723;28;20191;-81
2021/08/21 03:48:08;;;;;;;22.92;18.27;;;16.10;99.90;;;;;;5012110;28;20333;-82
2021/08/21 03:50:35;;;;;;;38.90;24.60;;;16.10;99.90;;;;;;5012237;28;20199;-84
2021/08/21 03:53:01;;;;;;;26.85;20.50;;;16.10;99.90;;;;;;5010923;28;20207;-82
2021/08/21 03:55:28;;;;;;;34.05;22.63;;;16.20;99.90;;;;;;5010925;28;20234;-82
2021/08/21 03:57:55;;;;;;;35.28;25.35;;;16.20;99.90;;;;;;5011592;28;20199;-83
2021/08/21 04:00:22;;;;;;;29.70;23.00;;;16.20;99.90;;;;;;5011289;28;20223;-83
2021/08/21 04:02:50;;;;;;;28.63;20.58;;;16.20;99.90;;;;;;5011136;28;20579;-83
2021/08/21 04:05:17;;;;;;;31.38;20.92;;;16.20;99.90;;;;;;5011180;28;20203;-83
2021/08/21 04:07:44;;;;;;;28.67;20.23;;;16.20;99.90;;;;;;5010913;28;20203;-82
2021/08/21 04:10:11;;;;;;;29.33;20.80;;;16.20;99.90;;;;;;5011138;28;20207;-83
2021/08/21 04:12:38;;;;;;;33.17;23.65;;;16.20;99.90;;;;;;5009957;28;20195;-81
2021/08/21 04:15:06;;;;;;;27.92;20.67;;;16.10;99.90;;;;;;5010061;28;20246;-81
2021/08/21 04:17:33;;;;;;;29.48;20.88;;;16.10;99.90;;;;;;5011043;28;20204;-82
2021/08/21 04:20:03;;;;;;;22.45;17.27;;;16.10;99.90;;;;;;5011673;28;20269;-83
2021/08/21 04:22:30;;;;;;;25.95;18.55;;;16.10;99.90;;;;;;5010458;28;20213;-82
2021/08/21 04:24:57;;;;;;;24.35;16.67;;;16.10;99.90;;;;;;5008816;28;20246;-81
2021/08/21 04:27:24;;;;;;;31.20;20.88;;;16.10;99.90;;;;;;5009973;28;20211;-83
2021/08/21 04:29:51;;;;;;;32.67;22.75;;;16.10;99.90;;;;;;5008938;28;20242;-83
2021/08/21 04:32:18;;;;;;;32.80;21.17;;;16.10;99.90;;;;;;5010359;28;20226;-81
2021/08/21 04:34:44;;;;;;;33.58;22.25;;;16.00;99.90;;;;;;5009813;28;20779;-82
2021/08/21 04:37:13;;;;;;;28.27;18.77;;;16.00;99.90;;;;;;5010514;28;20547;-83
2021/08/21 04:39:40;;;;;;;23.20;17.73;;;16.00;99.90;;;;;;5011652;28;20211;-82
2021/08/21 04:42:06;;;;;;;22.42;16.17;;;16.00;99.90;;;;;;5010115;28;20604;-83
2021/08/21 04:44:33;;;;;;;22.92;16.95;;;16.00;99.90;;;;;;5010539;28;20997;-83
2021/08/21 04:47:00;;;;;;;28.23;18.58;;;15.90;99.90;;;;;;5009724;28;20202;-82
2021/08/21 04:49:27;;;;;;;37.05;25.80;;;15.90;99.90;;;;;;5022834;28;20214;-82
2021/08/21 04:51:56;;;;;;;31.27;21.08;;;15.90;99.90;;;;;;5028218;28;20210;-82
2021/08/21 04:54:24;;;;;;;33.50;23.38;;;15.90;99.90;;;;;;5029410;28;20349;-83
2021/08/21 04:56:51;;;;;;;34.30;24.52;;;15.90;99.90;;;;;;5028790;28;20217;-82
2021/08/21 04:59:18;;;;;;;37.15;23.75;;;15.90;99.90;;;;;;5014854;28;20215;-82
2021/08/21 05:01:45;;;;;;;39.05;26.05;;;15.90;99.90;;;;;;5008496;28;20207;-82
2021/08/21 05:04:12;;;;;;;33.88;23.58;;;15.90;99.90;;;;;;5008644;28;20200;-81
2021/08/21 05:06:39;;;;;;;53.17;33.97;;;15.90;99.90;;;;;;5012482;28;20207;-80
2021/08/21 05:09:06;;;;;;;46.85;30.50;;;15.90;99.90;;;;;;5028489;28;20202;-80
2021/08/21 05:11:35;;;;;;;37.97;25.58;;;15.90;99.90;;;;;;5026893;28;20194;-80
2021/08/21 05:14:01;;;;;;;44.40;29.55;;;16.00;99.90;;;;;;5028107;28;20199;-81
2021/08/21 05:16:28;;;;;;;39.40;26.02;;;16.00;99.90;;;;;;5027936;28;20227;-82
2021/08/21 05:19:00;;;;;;;35.83;23.38;;;16.00;99.90;;;;;;5019196;28;20210;-82
2021/08/21 05:21:28;;;;;;;48.25;30.98;;;16.00;99.90;;;;;;5008833;28;20210;-82
2021/08/21 05:23:56;;;;;;;39.17;25.98;;;16.10;99.90;;;;;;5007060;28;20207;-82
2021/08/21 05:26:23;;;;;;;43.25;26.65;;;16.10;99.90;;;;;;5007811;28;20203;-81
2021/08/21 05:28:51;;;;;;;46.40;30.73;;;16.10;99.90;;;;;;5008414;28;20603;-81
2021/08/21 05:31:19;;;;;;;37.53;25.73;;;16.10;99.90;;;;;;5022275;28;20238;-82
2021/08/21 05:33:46;;;;;;;32.58;22.52;;;16.20;99.90;;;;;;5027296;28;20213;-80
2021/08/21 05:36:12;;;;;;;49.63;33.22;;;16.20;99.90;;;;;;5027875;28;20219;-80
2021/08/21 05:38:39;;;;;;;47.22;32.05;;;16.30;99.90;;;;;;5027192;28;20195;-83
2021/08/21 05:41:06;;;;;;;45.33;30.23;;;16.30;99.90;;;;;;5027688;28;20542;-80
2021/08/21 05:43:33;;;;;;;42.78;27.80;;;16.30;99.90;;;;;;5008736;28;20322;-81
2021/08/21 05:46:01;;;;;;;47.20;31.92;;;16.40;99.90;;;;;;5007765;28;20505;-83
2021/08/21 05:48:28;;;;;;;47.10;30.08;;;16.40;99.90;;;;;;5006592;28;20211;-83
2021/08/21 05:50:55;;;;;;;49.00;32.25;;;16.40;99.90;;;;;;5007162;28;20206;-83
2021/08/21 05:53:21;;;;;;;55.40;35.28;;;16.40;99.90;;;;;;5009033;28;20583;-83
2021/08/21 05:55:48;;;;;;;48.67;32.35;;;16.50;99.90;;;;;;5009462;28;20226;-82
2021/08/21 05:58:15;;;;;;;47.25;31.98;;;16.50;99.90;;;;;;5009631;28;20200;-83
2021/08/21 06:00:42;;;;;;;58.35;38.22;;;16.50;99.90;;;;;;5009119;28;20203;-82
2021/08/21 06:03:10;;;;;;;55.22;36.70;;;16.60;99.90;;;;;;5022490;28;20269;-81
2021/08/21 06:05:38;;;;;;;50.67;33.97;;;16.60;99.90;;;;;;5028235;28;20198;-81
2021/08/21 06:08:06;;;;;;;60.88;37.95;;;16.50;99.90;;;;;;5028105;28;20214;-83
2021/08/21 06:10:32;;;;;;;56.50;35.13;;;16.60;99.90;;;;;;5017773;28;20234;-80
2021/08/21 06:12:59;;;;;;;53.63;36.08;;;16.60;99.90;;;;;;5008555;28;20211;-81
2021/08/21 06:15:26;;;;;;;51.85;33.15;;;16.60;99.90;;;;;;5007155;28;20269;-81
2021/08/21 06:17:53;;;;;;;52.30;36.45;;;16.60;99.90;;;;;;5008307;28;20207;-81
2021/08/21 06:20:21;;;;;;;54.58;36.22;;;16.60;99.90;;;;;;5007252;28;20214;-82
2021/08/21 06:22:48;;;;;;;49.80;34.33;;;16.60;99.90;;;;;;5024000;28;20213;-83
2021/08/21 06:25:14;;;;;;;52.03;35.10;;;16.70;99.90;;;;;;5026827;28;20206;-80
2021/08/21 06:27:41;;;;;;;56.63;36.85;;;16.70;99.90;;;;;;5026085;28;20198;-83
2021/08/21 06:30:10;;;;;;;50.53;33.45;;;16.70;99.90;;;;;;5026508;28;20230;-83
2021/08/21 06:32:37;;;;;;;50.15;34.92;;;16.70;99.90;;;;;;5026784;28;20207;-81
2021/08/21 06:35:04;;;;;;;42.45;28.70;;;16.80;99.90;;;;;;5013130;28;21016;-82
2021/08/21 06:37:32;;;;;;;51.55;34.10;;;16.80;99.90;;;;;;5007422;28;20214;-80
2021/08/21 06:39:59;;;;;;;47.38;33.13;;;16.80;99.90;;;;;;5007595;28;20214;-83
2021/08/21 06:42:25;;;;;;;35.40;25.58;;;16.90;99.90;;;;;;5007567;28;20199;-80
2021/08/21 06:44:52;;;;;;;40.47;29.00;;;17.00;99.90;;;;;;5007883;28;20195;-81
2021/08/21 06:47:19;;;;;;;39.47;28.60;;;17.10;99.90;;;;;;5008551;28;20210;-81
2021/08/21 06:49:46;;;;;;;43.65;32.20;;;17.20;99.90;;;;;;5007194;28;20203;-85
2021/08/21 06:52:13;;;;;;;42.95;30.35;;;17.30;99.90;;;;;;5007636;28;20196;-86
2021/08/21 06:54:41;;;;;;;45.05;31.65;;;17.40;99.90;;;;;;5006587;28;20233;-83
2021/08/21 06:57:08;;;;;;;47.55;34.00;;;17.50;99.90;;;;;;5006959;28;20199;-83
2021/08/21 06:59:34;;;;;;;44.72;32.28;;;17.70;99.90;;;;;;5007113;28;20611;-83
2021/08/21 07:02:03;;;;;;;39.90;29.98;;;17.80;99.90;;;;;;5007728;28;20203;-83
2021/08/21 07:04:30;;;;;;;37.63;26.90;;;18.10;99.90;;;;;;5007357;28;20674;-84
2021/08/21 07:06:57;;;;;;;35.08;26.00;;;18.20;99.90;;;;;;5007338;28;20218;-85
2021/08/21 07:09:24;;;;;;;38.20;27.23;;;18.30;99.90;;;;;;5007072;28;20207;-82
2021/08/21 07:11:52;;;;;;;35.42;26.70;;;18.30;99.90;;;;;;5008558;28;20579;-83
2021/08/21 07:14:19;;;;;;;34.75;27.15;;;18.40;99.90;;;;;;5008376;28;20233;-82
2021/08/21 07:16:46;;;;;;;36.38;27.75;;;18.50;99.90;;;;;;5029228;28;20249;-82
2021/08/21 07:19:12;;;;;;;35.03;27.50;;;18.50;99.90;;;;;;5030576;28;20510;-82
2021/08/21 07:21:39;;;;;;;32.03;25.10;;;18.60;99.90;;;;;;5029922;28;20191;-81
2021/08/21 07:24:06;;;;;;;28.25;23.38;;;18.60;99.90;;;;;;5022539;28;20199;-82
2021/08/21 07:26:33;;;;;;;31.88;25.90;;;18.60;99.90;;;;;;5009189;28;20195;-85
2021/08/21 07:29:02;;;;;;;29.30;24.15;;;18.70;99.90;;;;;;5008198;28;20231;-82
2021/08/21 07:31:59;;;;;;;33.83;28.38;;;18.80;99.90;;;;;;5014190;28;20234;-84
2021/08/21 07:34:27;;;;;;;33.35;24.88;;;18.90;99.90;;;;;;4992652;28;20220;-84
2021/08/21 07:36:54;;;;;;;35.58;27.48;;;18.90;99.90;;;;;;5028407;28;20227;-85
2021/08/21 07:39:30;;;;;;;31.30;26.05;;;18.90;99.90;;;;;;4985396;28;20526;-83
2021/08/21 07:41:56;;;;;;;31.20;25.83;;;19.00;99.90;;;;;;5010036;28;20210;-82
2021/08/21 07:44:25;;;;;;;30.98;25.15;;;19.00;99.90;;;;;;5010302;28;20627;-83
2021/08/21 07:46:51;;;;;;;31.80;24.95;;;19.10;99.90;;;;;;5010720;28;20498;-83
2021/08/21 07:49:18;;;;;;;33.55;26.60;;;19.10;99.90;;;;;;5013362;28;20235;-83
2021/08/21 07:51:45;;;;;;;36.80;27.33;;;19.10;99.90;;;;;;5013170;28;20230;-84
2021/08/21 07:54:12;;;;;;;30.40;23.77;;;19.10;99.90;;;;;;5013540;28;20207;-83
2021/08/21 07:56:40;;;;;;;33.17;25.90;;;19.10;99.90;;;;;;4972438;28;20579;-82
2021/08/21 07:59:08;;;;;;;31.00;22.77;;;19.10;99.90;;;;;;5013553;28;20203;-86
2021/08/21 08:01:36;;;;;;;35.38;24.20;;;19.20;99.90;;;;;;5018078;28;20202;-84
2021/08/21 08:04:03;;;;;;;28.02;22.95;;;19.30;99.90;;;;;;5031600;28;20496;-83
2021/08/21 08:06:29;;;;;;;26.08;18.98;;;19.30;99.90;;;;;;5029855;28;20611;-83
2021/08/21 08:08:56;;;;;;;29.23;22.83;;;19.50;99.90;;;;;;5018239;28;20210;-84
2021/08/21 08:11:23;;;;;;;25.90;20.67;;;19.60;99.90;;;;;;5018362;28;20611;-84
2021/08/21 08:13:50;;;;;;;30.55;22.42;;;19.70;99.90;;;;;;5015475;28;20801;-84
2021/08/21 08:16:16;;;;;;;27.88;22.27;;;19.70;99.90;;;;;;5012714;28;20250;-81
2021/08/21 08:18:45;;;;;;;30.63;23.38;;;19.70;99.90;;;;;;5012437;28;20207;-83
2021/08/21 08:21:11;;;;;;;27.90;20.73;;;19.60;99.90;;;;;;5012692;28;20195;-83
2021/08/21 08:23:38;;;;;;;25.08;20.02;;;19.60;99.90;;;;;;5011709;28;20862;-83
2021/08/21 08:26:05;;;;;;;26.13;21.50;;;19.70;99.90;;;;;;5012222;28;20206;-81
2021/08/21 08:28:32;;;;;;;22.33;17.88;;;19.80;99.90;;;;;;5027984;28;20214;-83
2021/08/21 08:30:59;;;;;;;23.50;18.50;;;19.90;99.90;;;;;;5031803;28;20226;-83
2021/08/21 08:33:26;;;;;;;27.38;22.13;;;19.90;99.90;;;;;;5028334;28;20207;-84
2021/08/21 08:35:55;;;;;;;21.63;17.25;;;20.10;99.90;;;;;;5015471;28;20234;-84
2021/08/21 08:38:22;;;;;;;19.95;16.27;;;20.20;99.90;;;;;;5014501;28;20242;-86
2021/08/21 08:40:49;;;;;;;21.55;17.63;;;20.40;99.90;;;;;;5012501;28;20878;-83
2021/08/21 08:43:18;;;;;;;22.73;18.90;;;20.70;99.90;;;;;;5011473;28;20207;-84
2021/08/21 08:45:46;;;;;;;21.67;17.30;;;21.00;99.90;;;;;;5010494;28;20611;-83
2021/08/21 08:48:14;;;;;;;23.20;18.77;;;21.30;99.90;;;;;;5010910;28;20264;-82
2021/08/21 08:50:42;;;;;;;19.58;16.15;;;21.50;99.90;;;;;;5021836;28;20203;-83
2021/08/21 08:53:11;;;;;;;19.33;16.13;;;21.60;99.90;;;;;;5030775;28;20206;-82
2021/08/21 08:55:39;;;;;;;17.13;14.82;;;21.50;99.90;;;;;;5020374;28;20226;-83
2021/08/21 08:58:06;;;;;;;20.30;16.20;;;21.50;99.90;;;;;;5010310;28;20203;-83
2021/08/21 09:00:34;;;;;;;22.40;17.88;;;21.60;99.90;;;;;;5010866;28;20238;-83
2021/08/21 09:03:03;;;;;;;17.90;14.95;;;21.90;99.90;;;;;;5009733;28;20618;-83
2021/08/21 09:05:38;;;;;;;18.88;16.05;;;22.10;99.90;;;;;;5009071;28;20208;-83
2021/08/21 09:08:05;;;;;;;19.33;16.05;;;22.30;99.90;;;;;;5008849;28;20242;-82
2021/08/21 09:10:35;;;;;;;18.02;13.93;;;22.30;99.90;;;;;;5007772;28;20667;-84
2021/08/21 09:13:07;;;;;;;15.35;13.50;;;22.40;99.90;;;;;;5009058;28;20203;-80
2021/08/21 09:15:36;;;;;;;12.90;10.60;;;22.50;99.90;;;;;;5007873;28;20243;-82
2021/08/21 09:18:06;;;;;;;11.43;9.88;;;22.60;99.90;;;;;;5007407;28;20210;-83
2021/08/21 09:20:35;;;;;;;13.65;12.20;;;22.70;99.90;;;;;;5008021;28;20210;-83
2021/08/21 09:23:20;;;;;;;13.40;11.65;;;22.60;99.90;;;;;;5008034;28;20211;-83
2021/08/21 09:25:50;;;;;;;12.40;10.40;;;22.60;99.90;;;;;;5008277;28;20206;-80
2021/08/21 09:28:19;;;;;;;12.63;9.85;;;22.50;99.90;;;;;;5009788;28;20544;-83
2021/08/21 09:30:47;;;;;;;12.88;9.75;;;22.80;99.90;;;;;;5010361;28;20241;-89
2021/08/21 09:33:17;;;;;;;11.65;9.85;;;22.90;99.90;;;;;;5011316;28;20207;-86
2021/08/21 09:35:44;;;;;;;14.50;10.50;;;22.90;99.90;;;;;;5010900;28;20266;-82
2021/08/21 09:38:11;;;;;;;11.45;9.82;;;22.80;99.90;;;;;;5011414;28;20215;-84
2021/08/21 09:40:40;;;;;;;9.18;7.93;;;22.80;99.90;;;;;;5008347;28;20961;-82
2021/08/21 09:43:19;;;;;;;11.45;7.93;;;22.90;99.90;;;;;;5009885;28;20199;-83
2021/08/21 09:45:46;;;;;;;10.32;8.07;;;22.90;99.90;;;;;;5010562;28;20206;-83
2021/08/21 09:48:13;;;;;;;10.52;7.60;;;22.80;99.90;;;;;;5029357;28;20228;-84
2021/08/21 09:50:42;;;;;;;9.70;8.18;;;22.60;99.90;;;;;;5019526;28;20320;-84
2021/08/21 09:53:10;;;;;;;13.60;8.52;;;22.50;99.90;;;;;;5010008;28;20851;-82
2021/08/21 09:55:38;;;;;;;11.30;7.85;;;22.60;99.90;;;;;;5009696;28;20243;-84
2021/08/21 09:58:07;;;;;;;11.15;9.10;;;22.40;99.90;;;;;;5007814;28;20622;-80
2021/08/21 10:00:37;;;;;;;9.20;8.02;;;22.30;99.90;;;;;;5008712;28;20218;-80
2021/08/21 10:03:05;;;;;;;12.10;8.38;;;22.20;99.90;;;;;;5008642;28;20199;-82
2021/08/21 10:05:33;;;;;;;11.30;9.68;;;22.10;99.90;;;;;;5007486;28;20207;-80
2021/08/21 10:08:03;;;;;;;10.32;6.85;;;22.10;99.90;;;;;;5013835;28;20300;-83
2021/08/21 10:10:35;;;;;;;12.55;10.20;;;22.10;99.90;;;;;;5028486;28;20207;-81
2021/08/21 10:13:10;;;;;;;10.98;9.23;;;22.20;99.90;;;;;;5028261;28;20211;-81
2021/08/21 10:15:40;;;;;;;10.13;7.55;;;22.00;99.90;;;;;;5025941;28;20292;-81
2021/08/21 10:18:08;;;;;;;10.00;7.93;;;22.10;99.90;;;;;;5027616;28;20590;-83
2021/08/21 10:20:35;;;;;;;9.27;7.43;;;22.30;99.90;;;;;;5026804;28;20194;-84
2021/08/21 10:23:11;;;;;;;7.82;6.32;;;22.60;99.90;;;;;;5007590;28;20210;-83
2021/08/21 10:25:41;;;;;;;9.25;7.15;;;23.10;99.90;;;;;;5007836;28;20214;-82
2021/08/21 10:28:10;;;;;;;9.23;7.35;;;23.50;99.90;;;;;;5006935;28;20203;-83
2021/08/21 10:30:44;;;;;;;12.80;8.70;;;24.00;99.90;;;;;;5007134;28;20230;-83
2021/08/21 10:33:11;;;;;;;13.35;8.73;;;24.00;99.90;;;;;;5007595;28;20230;-83
2021/08/21 10:35:48;;;;;;;10.93;8.48;;;24.20;99.90;;;;;;5020095;28;20217;-81
2021/08/21 10:38:39;;;;;;;12.80;8.88;;;24.20;99.90;;;;;;5026170;28;20230;-83
2021/08/21 10:41:34;;;;;;;9.60;8.25;;;24.10;99.90;;;;;;5006645;28;20219;-82
2021/08/21 10:44:01;;;;;;;8.27;7.32;;;24.10;99.90;;;;;;5006387;28;20203;-81
2021/08/21 10:46:54;;;;;;;12.20;8.23;;;24.10;99.90;;;;;;5006395;28;20207;-81
2021/08/21 10:49:42;;;;;;;10.40;7.13;;;24.00;99.90;;;;;;5001682;28;20214;-81
2021/08/21 10:52:48;;;;;;;14.70;9.48;;;24.00;99.90;;;;;;5007301;28;20214;-83
2021/08/21 10:55:18;;;;;;;7.95;7.05;;;23.90;99.90;;;;;;5006099;28;20267;-82
2021/08/21 10:58:11;;;;;;;11.98;8.55;;;24.00;99.90;;;;;;5006105;28;20234;-80
2021/08/21 11:00:55;;;;;;;10.82;9.40;;;24.30;99.90;;;;;;5006459;28;20219;-83
2021/08/21 11:03:44;;;;;;;11.65;9.35;;;24.50;99.90;;;;;;5007050;28;20200;-83
2021/08/21 11:06:11;;;;;;;8.13;7.32;;;24.90;99.90;;;;;;5019228;28;20226;-82
2021/08/21 11:08:58;;;;;;;14.75;11.02;;;24.90;99.90;;;;;;5009503;28;20329;-82
2021/08/21 11:11:30;;;;;;;11.20;9.27;;;25.10;99.90;;;;;;5027188;28;20256;-83
2021/08/21 11:14:00;;;;;;;10.43;8.57;;;25.20;99.90;;;;;;5007290;28;20214;-83
2021/08/21 11:16:53;;;;;;;11.45;9.82;;;25.30;99.90;;;;;;5006139;28;20904;-82
2021/08/21 11:19:36;;;;;;;16.00;12.35;;;25.50;99.90;;;;;;5003434;28;20212;-84
2021/08/21 11:22:29;;;;;;;11.52;10.30;;;25.40;99.90;;;;;;5009251;28;20211;-82
2021/08/21 11:25:03;;;;;;;8.90;8.00;;;25.60;99.90;;;;;;4991204;28;20269;-82
2021/08/21 11:27:34;;;;;;;9.32;8.43;;;25.80;99.90;;;;;;5010816;28;20207;-82
2021/08/21 11:30:18;;;;;;;8.07;7.30;;;26.10;99.90;;;;;;5009360;28;20234;-80
2021/08/21 11:32:46;;;;;;;11.73;10.45;;;26.40;99.90;;;;;;5014582;28;20322;-83
2021/08/21 11:35:19;;;;;;;10.85;9.75;;;26.30;99.90;;;;;;5010000;28;20580;-83
2021/08/21 11:37:48;;;;;;;12.25;9.07;;;26.40;99.90;;;;;;5009243;28;20218;-82
2021/08/21 11:40:16;;;;;;;10.02;9.02;;;26.60;99.90;;;;;;5010967;28;20214;-85
2021/08/21 11:42:52;;;;;;;13.48;11.55;;;26.40;99.90;;;;;;5010434;28;20210;-81
2021/08/21 11:45:19;;;;;;;12.70;11.07;;;26.10;99.90;;;;;;5030619;28;20206;-85
2021/08/21 11:47:46;;;;;;;9.50;8.60;;;26.00;99.90;;;;;;5024314;28;20210;-83
2021/08/21 11:50:23;;;;;;;9.75;7.38;;;26.10;99.90;;;;;;5010506;28;20596;-83
2021/08/21 11:52:51;;;;;;;11.85;10.75;;;26.20;99.90;;;;;;5009458;28;20215;-83
2021/08/21 11:55:18;;;;;;;11.32;10.10;;;26.20;99.90;;;;;;5009379;28;20195;-83
2021/08/21 11:57:46;;;;;;;13.63;10.30;;;26.20;99.90;;;;;;5010929;28;20230;-83
2021/08/21 12:00:18;;;;;;;15.27;11.63;;;26.30;99.90;;;;;;5011320;28;20821;-80
2021/08/21 12:02:47;;;;;;;11.38;9.70;;;26.00;99.90;;;;;;5019362;28;20294;-83
2021/08/21 12:05:13;;;;;;;10.93;9.27;;;25.60;99.90;;;;;;5031010;28;20206;-82
2021/08/21 12:07:42;;;;;;;8.85;8.00;;;25.70;99.90;;;;;;5021231;28;20214;-82
2021/08/21 12:10:10;;;;;;;10.70;9.65;;;25.70;99.90;;;;;;5010054;28;20195;-82
2021/08/21 12:12:37;;;;;;;12.40;10.05;;;25.70;99.90;;;;;;5010173;28;20219;-85
2021/08/21 12:15:05;;;;;;;11.38;9.18;;;25.50;99.90;;;;;;5010474;28;20694;-85
2021/08/21 12:17:34;;;;;;;11.52;10.32;;;25.30;99.90;;;;;;5010622;28;20219;-84
2021/08/21 12:20:02;;;;;;;11.07;9.88;;;25.20;99.90;;;;;;5010905;28;20203;-84
2021/08/21 12:22:29;;;;;;;11.38;10.27;;;25.10;99.90;;;;;;5012016;28;20196;-83
2021/08/21 12:24:58;;;;;;;12.27;10.10;;;24.80;99.90;;;;;;5011005;28;20207;-83
2021/08/21 12:27:27;;;;;;;8.77;7.97;;;24.60;99.90;;;;;;5012068;28;20681;-83
2021/08/21 12:30:09;;;;;;;10.55;9.35;;;24.50;99.90;;;;;;5015093;28;20227;-89
2021/08/21 12:32:36;;;;;;;12.57;10.45;;;24.30;99.90;;;;;;5012177;28;20195;-84
2021/08/21 12:35:17;;;;;;;11.57;10.00;;;24.10;99.90;;;;;;5012158;28;20509;-84
2021/08/21 12:37:44;;;;;;;14.13;12.50;;;24.20;99.90;;;;;;5011845;28;20223;-83